Osage City, KS (66523)

9:51 AM CDT on August 27, 2016 (GMT -0500)
Skydive Kansas | | Change Station

Elev 1089 ft 38.64 °N, 95.80 °W | Updated 6 minutes ago

Clear
Clear
84.4 °F
Feels Like 88 °F
N
11.6
Wind Variable Wind from SSE
Gusts 12.1 mph

Today
High -- | Low -- °F
--% Chance of Precip.
Yesterday
High -- | Low -- °F
Precip. -- in
Pressure 30.00 in
Visibility 10.0 miles
Clouds Clear
Heat Index 88 °F
Dew Point 68 °F
Humidity 59%
Rainfall 0.00 in
Snow Depth Not available.
6:48 AM 8:00 PM
Waning Crescent, 24% visible
METAR KFOE 271353Z 14006KT 10SM CLR 22/19 A3002 RMK AO2 SLP158 T02220189
Pressure 30.00 in
Visibility 10.0 miles
Clouds Clear
Heat Index 88 °F
Dew Point 68 °F
Humidity 59%
Rainfall 0.00 in
Snow Depth Not available.
6:48 AM 8:00 PM
Waning Crescent, 24% visible
METAR KFOE 271353Z 14006KT 10SM CLR 22/19 A3002 RMK AO2 SLP158 T02220189

10-Day Weather Forecast

Almanac

Astronomy

Aug. 27, 2016 Rise Set
Actual Time
Civil Twilight
Nautical Twilight
Astronomical Twilight
Moon
Length of Visible Light
Length of Day
Tomorrow will be .
, % of the Moon is Illuminated

Today's Extremes

State Highs State Lows

Community

WunderPhotos

Upload Photos

1,935,344 photos uploaded!

WunderBlog® & News

Nearby

Air Quality

  Air Quality AQ Index Pollutant
Not available.

Snow Depth

Station Depth Elevation

Earthquake Activity

City Distance Mag. Time & Date
Minimum magnitude displayed is 2.5.

Coastal Water Temperatures

Place Temperature

Stations

Nearby Weather Stations

Station Location Temp. Windchill Dew Point Humidity Wind Precip. Elev Updated Type
                   

Watches & Warnings

There are currently no watches in effect.